createdAt,value
2019-03-19T00:01:00.811Z,101071.94
2019-03-19T00:03:30.235Z,101074.84
2019-03-19T00:06:01.211Z,101081.34
2019-03-19T00:08:30.736Z,101086.08
2019-03-19T00:11:00.169Z,101088.33
2019-03-19T00:13:29.589Z,101095.42
2019-03-19T00:15:59.064Z,101104.99
2019-03-19T00:18:28.551Z,101105.58
2019-03-19T00:20:58.123Z,101110.44
2019-03-19T00:23:27.524Z,101108.61
2019-03-19T00:25:56.961Z,101106.47
2019-03-19T00:28:26.378Z,101105.67
2019-03-19T00:30:56.150Z,101105.27
2019-03-19T00:33:25.565Z,101113.53
2019-03-19T00:35:55.117Z,101120.89
2019-03-19T00:38:24.525Z,101127.77
2019-03-19T00:40:53.955Z,101129.09
2019-03-19T00:43:23.370Z,101133.41
2019-03-19T00:45:52.812Z,101141.68
2019-03-19T00:48:22.223Z,101129.23
2019-03-19T00:50:51.657Z,101137.86
2019-03-19T00:53:21.069Z,101138.30
2019-03-19T00:55:50.502Z,101141.27
2019-03-19T00:58:19.904Z,101134.86
2019-03-19T01:00:49.339Z,101136.69
2019-03-19T01:03:18.954Z,101144.03
2019-03-19T01:05:48.393Z,101140.15
2019-03-19T01:08:17.816Z,101141.95
2019-03-19T01:10:47.258Z,101150.65
2019-03-19T01:13:16.672Z,101156.41
2019-03-19T01:15:46.114Z,101154.29
2019-03-19T01:18:15.529Z,101150.38
2019-03-19T01:20:44.975Z,101145.70
2019-03-19T01:23:14.393Z,101151.34
2019-03-19T01:25:55.224Z,101150.05
2019-03-19T01:28:14.945Z,101150.88
2019-03-19T01:30:44.390Z,101154.34
2019-03-19T01:33:13.812Z,101157.79
2019-03-19T01:35:43.254Z,101160.73
2019-03-19T01:38:12.669Z,101168.41
2019-03-19T01:40:42.108Z,101155.38
2019-03-19T01:43:11.511Z,101170.50
2019-03-19T01:45:40.947Z,101165.37
2019-03-19T01:48:10.383Z,101167.91
2019-03-19T01:50:39.804Z,101168.00
2019-03-19T01:53:09.203Z,101163.67
2019-03-19T01:55:38.664Z,101167.50
2019-03-19T01:58:08.078Z,101163.23
2019-03-19T02:00:37.516Z,101170.64
2019-03-19T02:03:06.935Z,101170.31
2019-03-19T02:05:36.374Z,101160.90
2019-03-19T02:08:05.785Z,101167.89
2019-03-19T02:10:35.228Z,101171.36
2019-03-19T02:13:04.645Z,101178.38
2019-03-19T02:15:34.084Z,101178.83
2019-03-19T02:18:03.521Z,101181.05
2019-03-19T02:20:32.935Z,101182.34
2019-03-19T02:23:04.649Z,101183.28
2019-03-19T02:25:33.900Z,101191.51
2019-03-19T02:28:03.503Z,101197.44
2019-03-19T02:30:32.920Z,101200.22
2019-03-19T02:33:02.875Z,101204.53
2019-03-19T02:35:32.258Z,101203.76
2019-03-19T02:38:01.708Z,101206.94
2019-03-19T02:40:31.527Z,101205.77
2019-03-19T02:43:01.004Z,101209.26
2019-03-19T02:45:30.383Z,101211.53
2019-03-19T02:47:59.942Z,101217.95
2019-03-19T02:50:29.351Z,101219.23
2019-03-19T02:52:58.786Z,101225.83
2019-03-19T02:55:28.579Z,101225.41
2019-03-19T02:57:58.009Z,101227.14
2019-03-19T03:00:27.428Z,101234.53
2019-03-19T03:02:56.865Z,101238.45
2019-03-19T03:05:26.279Z,101234.89
2019-03-19T03:07:56.048Z,101239.98
2019-03-19T03:10:25.462Z,101241.20
2019-03-19T03:12:54.893Z,101253.13
2019-03-19T03:15:24.302Z,101253.89
2019-03-19T03:17:53.730Z,101247.78
2019-03-19T03:20:23.143Z,101251.95
2019-03-19T03:22:52.889Z,101257.98
2019-03-19T03:25:22.301Z,101270.34
2019-03-19T03:27:51.741Z,101264.29
2019-03-19T03:30:23.859Z,101272.43
2019-03-19T03:32:53.592Z,101273.19
2019-03-19T03:35:23.067Z,101277.87
2019-03-19T03:37:52.518Z,101276.94
2019-03-19T03:40:21.926Z,101279.50
2019-03-19T03:42:51.354Z,101282.47
2019-03-19T03:45:20.771Z,101285.11
2019-03-19T03:47:50.209Z,101284.18
2019-03-19T03:50:19.788Z,101290.64
2019-03-19T03:52:49.220Z,101300.12
2019-03-19T03:55:19.487Z,101305.21
2019-03-19T03:57:48.937Z,101301.33
2019-03-19T04:00:21.896Z,101312.48
2019-03-19T04:02:51.332Z,101314.27
2019-03-19T04:05:20.753Z,101319.88
2019-03-19T04:07:50.190Z,101321.95
2019-03-19T04:10:19.875Z,101327.20
2019-03-19T04:12:49.312Z,101334.05
2019-03-19T04:15:18.994Z,101333.05
2019-03-19T04:17:48.456Z,101334.73
2019-03-19T04:20:17.988Z,101342.59
2019-03-19T04:22:47.437Z,101351.30
2019-03-19T04:25:16.847Z,101359.55
2019-03-19T04:27:46.281Z,101363.88
2019-03-19T04:30:19.094Z,101370.41
2019-03-19T04:32:48.638Z,101368.22
2019-03-19T04:35:18.106Z,101375.59
2019-03-19T04:37:47.553Z,101372.47
2019-03-19T04:40:17.050Z,101374.22
2019-03-19T04:42:46.486Z,101375.52
2019-03-19T04:45:16.638Z,101373.00
2019-03-19T04:47:46.087Z,101376.08
2019-03-19T04:50:18.453Z,101390.72
2019-03-19T04:52:47.889Z,101390.20
2019-03-19T04:55:17.468Z,101388.42
2019-03-19T04:57:46.913Z,101387.94
2019-03-19T05:00:17.165Z,101397.92
2019-03-19T05:02:46.618Z,101400.92
2019-03-19T05:05:16.026Z,101407.39
2019-03-19T05:07:45.476Z,101415.23
2019-03-19T05:10:18.296Z,101420.83
2019-03-19T05:12:47.736Z,101422.08
2019-03-19T05:15:17.149Z,101418.17
2019-03-19T05:17:46.597Z,101424.20
2019-03-19T05:20:20.545Z,101423.37
2019-03-19T05:22:49.994Z,101421.55
2019-03-19T05:25:19.445Z,101429.75
2019-03-19T05:27:48.917Z,101436.53
2019-03-19T05:30:19.267Z,101442.19
2019-03-19T05:32:48.677Z,101441.77
2019-03-19T05:35:18.222Z,101445.14
2019-03-19T05:37:47.683Z,101451.08
2019-03-19T05:40:17.686Z,101450.61
2019-03-19T05:42:47.103Z,101446.72
2019-03-19T05:45:16.916Z,101454.89
2019-03-19T05:47:46.332Z,101455.77
2019-03-19T05:50:22.881Z,101463.11
2019-03-19T05:52:52.293Z,101465.70
2019-03-19T05:55:21.798Z,101476.89
2019-03-19T05:57:51.233Z,101485.45
2019-03-19T06:00:28.515Z,101483.66
2019-03-19T06:03:19.145Z,101490.95
2019-03-19T06:05:49.709Z,101491.73
2019-03-19T06:08:19.142Z,101498.50
2019-03-19T06:10:48.610Z,101497.19
2019-03-19T06:13:18.816Z,101501.56
2019-03-19T06:15:48.396Z,101506.66
2019-03-19T06:18:17.804Z,101505.83
2019-03-19T06:20:47.255Z,101515.18
2019-03-19T06:23:16.670Z,101511.77
2019-03-19T06:25:46.127Z,101516.89
2019-03-19T06:28:15.541Z,101514.38
2019-03-19T06:30:44.993Z,101522.88
2019-03-19T06:33:14.399Z,101524.87
2019-03-19T06:35:43.861Z,101523.57
2019-03-19T06:38:13.320Z,101522.00
2019-03-19T06:40:42.786Z,101521.73
2019-03-19T06:43:12.203Z,101531.13
2019-03-19T06:45:42.063Z,101535.83
2019-03-19T06:48:11.490Z,101537.42
2019-03-19T06:50:45.511Z,101542.02
2019-03-19T06:53:12.974Z,101546.81
2019-03-19T06:55:42.429Z,101541.84
2019-03-19T06:58:11.850Z,101552.06
2019-03-19T07:00:41.317Z,101555.45
2019-03-19T07:03:10.730Z,101554.08
2019-03-19T07:05:40.181Z,101557.74
2019-03-19T07:08:20.591Z,101568.34
2019-03-19T07:10:50.073Z,101570.11
2019-03-19T07:13:19.514Z,101567.80
2019-03-19T07:15:48.966Z,101564.51
2019-03-19T07:18:18.377Z,101567.38
2019-03-19T07:20:47.834Z,101562.77
2019-03-19T07:23:17.248Z,101577.13
2019-03-19T07:25:46.702Z,101573.44
2019-03-19T07:28:21.959Z,101577.19
2019-03-19T07:30:47.274Z,101577.94
2019-03-19T07:33:16.675Z,101586.10
2019-03-19T07:35:46.134Z,101589.30
2019-03-19T07:38:15.771Z,101591.42
2019-03-19T07:40:45.217Z,101591.91
2019-03-19T07:43:16.667Z,101586.48
2019-03-19T07:45:46.982Z,101596.00
2019-03-19T07:48:16.403Z,101593.32
2019-03-19T07:50:45.855Z,101595.63
2019-03-19T07:53:15.265Z,101588.91
2019-03-19T07:55:44.719Z,101596.28
2019-03-19T07:58:14.331Z,101594.95
2019-03-19T08:00:43.779Z,101602.92
2019-03-19T08:03:16.354Z,101609.08
2019-03-19T08:05:44.345Z,101609.94
2019-03-19T08:08:13.758Z,101614.85
2019-03-19T08:10:43.232Z,101620.10
2019-03-19T08:13:12.713Z,101623.14
2019-03-19T08:15:42.272Z,101631.97
2019-03-19T08:18:11.689Z,101636.74
2019-03-19T08:20:41.157Z,101638.65
2019-03-19T08:23:10.566Z,101645.91
2019-03-19T08:25:40.010Z,101644.97
2019-03-19T08:28:09.421Z,101651.54
2019-03-19T08:30:39.071Z,101671.22
2019-03-19T08:33:08.483Z,101663.36
2019-03-19T08:35:38.534Z,101675.03
2019-03-19T08:38:07.950Z,101685.08
2019-03-19T08:40:37.397Z,101683.72
2019-03-19T08:43:06.820Z,101678.97
2019-03-19T08:45:36.280Z,101684.83
2019-03-19T08:48:05.929Z,101686.53
2019-03-19T08:50:35.373Z,101691.91
2019-03-19T08:53:04.796Z,101689.83
2019-03-19T08:55:35.377Z,101688.20
2019-03-19T08:58:04.977Z,101693.98
2019-03-19T09:00:37.514Z,101703.00
2019-03-19T09:03:06.932Z,101695.85
2019-03-19T09:05:37.366Z,101700.94
2019-03-19T09:08:06.978Z,101705.55
2019-03-19T09:10:36.700Z,101712.39
2019-03-19T09:13:06.226Z,101717.75
2019-03-19T09:15:35.625Z,101715.08
2019-03-19T09:18:05.070Z,101710.07
2019-03-19T09:20:34.491Z,101721.18
2019-03-19T09:23:03.956Z,101730.19
2019-03-19T09:25:33.371Z,101726.62
2019-03-19T09:28:02.817Z,101729.13
2019-03-19T09:30:32.301Z,101736.34
2019-03-19T09:33:01.748Z,101735.45
2019-03-19T09:35:31.234Z,101738.05
2019-03-19T09:38:00.683Z,101738.52
2019-03-19T09:40:30.098Z,101735.81
2019-03-19T09:42:59.550Z,101743.52
2019-03-19T09:45:28.973Z,101740.66
2019-03-19T09:47:58.429Z,101737.89
2019-03-19T09:50:28.019Z,101748.04
2019-03-19T09:52:57.473Z,101750.62
2019-03-19T09:55:26.881Z,101751.33
2019-03-19T09:57:56.352Z,101744.83
2019-03-19T10:00:25.759Z,101754.44
2019-03-19T10:02:55.456Z,101752.86
2019-03-19T10:05:24.865Z,101753.15
2019-03-19T10:07:55.832Z,101743.88
2019-03-19T10:10:25.359Z,101756.09
2019-03-19T10:12:54.787Z,101754.80
2019-03-19T10:15:24.502Z,101764.88
2019-03-19T10:17:53.961Z,101761.52
2019-03-19T10:20:26.545Z,101761.42
2019-03-19T10:22:55.996Z,101759.78
2019-03-19T10:25:25.406Z,101767.99
2019-03-19T10:27:54.856Z,101767.61
2019-03-19T10:30:24.612Z,101770.72
2019-03-19T10:32:54.058Z,101770.16
2019-03-19T10:35:23.472Z,101771.14
2019-03-19T10:37:52.924Z,101772.14
2019-03-19T10:40:24.674Z,101777.98
2019-03-19T10:42:54.128Z,101774.39
2019-03-19T10:45:24.179Z,101778.50
2019-03-19T10:47:53.627Z,101774.01
2019-03-19T10:50:26.568Z,101779.39
2019-03-19T10:52:56.022Z,101780.17
2019-03-19T10:55:25.447Z,101783.05
2019-03-19T10:57:54.893Z,101787.98
2019-03-19T11:00:24.945Z,101779.58
2019-03-19T11:02:54.424Z,101788.84
2019-03-19T11:05:24.380Z,101786.77
2019-03-19T11:07:53.905Z,101784.39
2019-03-19T11:10:23.337Z,101784.20
2019-03-19T11:12:52.825Z,101787.13
2019-03-19T11:15:26.557Z,101783.78
2019-03-19T11:17:56.022Z,101781.46
2019-03-19T11:20:25.523Z,101785.97
2019-03-19T11:22:54.974Z,101787.64
2019-03-19T11:25:31.703Z,101785.38
2019-03-19T11:28:01.152Z,101789.70
2019-03-19T11:30:31.311Z,101788.23
2019-03-19T11:33:00.761Z,101791.62
2019-03-19T11:35:30.183Z,101799.60
2019-03-19T11:37:59.635Z,101802.83
2019-03-19T11:40:29.057Z,101808.61
2019-03-19T11:42:58.537Z,101810.22
2019-03-19T11:45:27.944Z,101820.19
2019-03-19T11:47:57.391Z,101813.66
2019-03-19T11:50:28.905Z,101813.68
2019-03-19T11:52:58.357Z,101808.85
2019-03-19T11:55:27.781Z,101809.27
2019-03-19T11:57:57.868Z,101806.97
2019-03-19T12:00:41.262Z,101808.86
2019-03-19T12:03:16.105Z,101804.91
2019-03-19T12:05:42.680Z,101807.77
2019-03-19T12:08:12.608Z,101815.42
2019-03-19T12:10:42.021Z,101810.42
2019-03-19T12:13:11.909Z,101797.30
2019-03-19T12:15:41.335Z,101797.40
2019-03-19T12:18:10.818Z,101792.61
2019-03-19T12:20:40.236Z,101793.78
2019-03-19T12:23:10.175Z,101799.59
2019-03-19T12:25:39.791Z,101798.45
2019-03-19T12:28:12.397Z,101789.93
2019-03-19T12:30:41.821Z,101779.74
2019-03-19T12:33:11.295Z,101782.52
2019-03-19T12:35:40.717Z,101776.91
2019-03-19T12:38:10.438Z,101782.14
2019-03-19T12:40:40.432Z,101781.55
2019-03-19T12:43:10.440Z,101771.59
2019-03-19T12:45:39.941Z,101772.77
2019-03-19T12:48:12.146Z,101774.63
2019-03-19T12:50:42.253Z,101779.38
2019-03-19T12:53:11.669Z,101786.64
2019-03-19T12:55:41.123Z,101779.88
2019-03-19T12:58:10.541Z,101786.89
2019-03-19T13:00:40.766Z,101786.34
2019-03-19T13:03:10.564Z,101795.77
2019-03-19T13:05:40.359Z,101796.11
2019-03-19T13:08:09.777Z,101798.72
2019-03-19T13:10:39.238Z,101808.72
2019-03-19T13:13:08.660Z,101812.46
2019-03-19T13:15:38.157Z,101814.19
2019-03-19T13:18:07.723Z,101811.03
2019-03-19T13:20:37.163Z,101816.30
2019-03-19T13:23:06.602Z,101822.01
2019-03-19T13:25:37.728Z,101830.77
2019-03-19T13:28:11.428Z,101830.89
2019-03-19T13:30:45.376Z,101835.59
2019-03-19T13:33:13.963Z,101832.83
2019-03-19T13:35:45.477Z,101838.97
2019-03-19T13:38:14.908Z,101840.59
2019-03-19T13:40:44.361Z,101837.97
2019-03-19T13:43:14.216Z,101842.12
2019-03-19T13:45:43.662Z,101851.94
2019-03-19T13:48:13.406Z,101848.51
2019-03-19T13:50:42.960Z,101850.08
2019-03-19T13:53:12.372Z,101848.31
2019-03-19T13:55:42.325Z,101849.14
2019-03-19T13:58:11.739Z,101850.77
2019-03-19T14:00:41.198Z,101849.93
2019-03-19T14:03:10.610Z,101851.45
2019-03-19T14:05:40.667Z,101852.19
2019-03-19T14:08:10.088Z,101854.93
2019-03-19T14:10:40.985Z,101859.75
2019-03-19T14:13:10.401Z,101853.50
2019-03-19T14:15:39.845Z,101855.76
2019-03-19T14:18:09.271Z,101850.21
2019-03-19T14:20:38.726Z,101849.21
2019-03-19T14:23:08.149Z,101851.52
2019-03-19T14:25:37.592Z,101860.32
2019-03-19T14:28:07.007Z,101859.63
2019-03-19T14:30:36.473Z,101860.18
2019-03-19T14:33:05.907Z,101862.64
2019-03-19T14:35:37.523Z,101859.42
2019-03-19T14:38:06.490Z,101860.34
2019-03-19T14:40:35.945Z,101857.28
2019-03-19T14:43:05.398Z,101850.09
2019-03-19T14:45:34.850Z,101849.04
2019-03-19T14:48:06.081Z,101851.08
2019-03-19T14:50:35.429Z,101849.88
2019-03-19T14:53:04.956Z,101860.20
2019-03-19T14:55:34.409Z,101857.50
2019-03-19T14:58:03.855Z,101854.30
2019-03-19T15:00:35.396Z,101848.98
2019-03-19T15:03:04.398Z,101857.08
2019-03-19T15:05:33.865Z,101857.19
2019-03-19T15:08:03.291Z,101868.19
2019-03-19T15:10:32.735Z,101863.80
2019-03-19T15:13:02.509Z,101868.77
2019-03-19T15:15:31.965Z,101865.57
2019-03-19T15:18:01.378Z,101872.92
2019-03-19T15:20:30.997Z,101871.94
2019-03-19T15:23:00.413Z,101874.55
2019-03-19T15:25:29.863Z,101876.03
2019-03-19T15:27:59.355Z,101882.16
2019-03-19T15:30:29.014Z,101880.00
2019-03-19T15:32:58.949Z,101887.54
2019-03-19T15:35:28.606Z,101889.38
2019-03-19T15:37:58.021Z,101895.11
2019-03-19T15:40:27.470Z,101907.84
2019-03-19T15:42:57.091Z,101902.70
2019-03-19T15:45:27.700Z,101910.88
2019-03-19T15:47:57.321Z,101915.02
2019-03-19T15:50:26.782Z,101921.70
2019-03-19T15:52:56.227Z,101920.84
2019-03-19T15:55:25.882Z,101924.29
2019-03-19T15:57:55.336Z,101928.12
2019-03-19T16:00:24.754Z,101930.25
2019-03-19T16:02:54.208Z,101938.52
2019-03-19T16:05:23.664Z,101935.73
2019-03-19T16:07:53.114Z,101933.56
2019-03-19T16:10:22.535Z,101939.38
2019-03-19T16:12:51.987Z,101937.25
2019-03-19T16:15:22.340Z,101936.59
2019-03-19T16:17:51.804Z,101944.91
2019-03-19T16:20:22.708Z,101948.87
2019-03-19T16:22:52.158Z,101947.95
2019-03-19T16:25:21.577Z,101952.39
2019-03-19T16:27:51.028Z,101956.06
2019-03-19T16:30:20.604Z,101957.08
2019-03-19T16:32:50.051Z,101965.63
2019-03-19T16:35:19.470Z,101964.73
2019-03-19T16:37:48.908Z,101973.67
2019-03-19T16:40:22.285Z,101978.54
2019-03-19T16:42:51.732Z,101978.00
2019-03-19T16:45:21.138Z,101983.38
2019-03-19T16:47:50.589Z,101985.25
2019-03-19T16:50:22.001Z,101989.68
2019-03-19T16:52:51.451Z,101989.06
2019-03-19T16:55:21.603Z,102005.69
2019-03-19T16:57:51.036Z,102005.05
2019-03-19T17:00:24.325Z,102008.22
2019-03-19T17:02:53.770Z,102022.16
2019-03-19T17:05:23.184Z,102015.60
2019-03-19T17:07:52.636Z,102023.82
2019-03-19T17:10:30.203Z,102025.12
2019-03-19T17:12:59.658Z,102018.98
2019-03-19T17:15:29.077Z,102024.18
2019-03-19T17:17:58.522Z,102029.80
2019-03-19T17:20:27.935Z,102033.78
2019-03-19T17:22:57.387Z,102037.43
2019-03-19T17:25:27.241Z,102036.11
2019-03-19T17:27:56.687Z,102031.94
2019-03-19T17:30:27.144Z,102042.10
2019-03-19T17:32:56.618Z,102050.41
2019-03-19T17:35:26.040Z,102054.47
2019-03-19T17:37:55.492Z,102058.20
2019-03-19T17:40:24.918Z,102060.30
2019-03-19T17:42:54.363Z,102060.42
2019-03-19T17:45:23.789Z,102064.55
2019-03-19T17:47:53.251Z,102068.26
2019-03-19T17:50:27.859Z,102069.72
2019-03-19T17:52:57.395Z,102072.38
2019-03-19T17:55:26.809Z,102073.94
2019-03-19T17:57:56.269Z,102071.47
2019-03-19T18:00:27.333Z,102082.04
2019-03-19T18:02:56.834Z,102084.33
2019-03-19T18:05:26.270Z,102091.48
2019-03-19T18:07:55.746Z,102097.27
2019-03-19T18:10:25.173Z,102100.52
2019-03-19T18:12:54.624Z,102099.33
2019-03-19T18:15:24.050Z,102104.78
2019-03-19T18:17:53.524Z,102108.35
2019-03-19T18:20:22.947Z,102100.34
2019-03-19T18:22:52.416Z,102112.16
2019-03-19T18:25:21.846Z,102108.75
2019-03-19T18:27:51.381Z,102116.04
2019-03-19T18:30:24.708Z,102116.38
2019-03-19T18:32:54.208Z,102115.14
2019-03-19T18:35:24.823Z,102117.43
2019-03-19T18:37:54.315Z,102126.08
2019-03-19T18:40:23.751Z,102121.80
2019-03-19T18:42:53.206Z,102129.14
2019-03-19T18:45:22.637Z,102129.14
2019-03-19T18:47:52.114Z,102131.30
2019-03-19T18:50:24.711Z,102131.73
2019-03-19T18:52:54.184Z,102127.94
2019-03-19T18:55:23.619Z,102134.46
2019-03-19T18:57:53.136Z,102128.37
2019-03-19T19:00:24.279Z,102135.66
2019-03-19T19:02:53.741Z,102136.62
2019-03-19T19:05:24.149Z,102146.73
2019-03-19T19:07:53.575Z,102151.09
2019-03-19T19:10:23.259Z,102153.38
2019-03-19T19:12:52.813Z,102160.02
2019-03-19T19:15:26.367Z,102160.88
2019-03-19T19:17:55.791Z,102169.63
2019-03-19T19:20:29.232Z,102167.47
2019-03-19T19:23:02.774Z,102164.95
2019-03-19T19:25:31.635Z,102169.27
2019-03-19T19:28:01.149Z,102173.16
2019-03-19T19:30:31.857Z,102183.94
2019-03-19T19:33:02.949Z,102180.92
2019-03-19T19:35:32.454Z,102188.29
2019-03-19T19:38:03.417Z,102189.16
2019-03-19T19:40:33.133Z,102195.19
2019-03-19T19:43:02.609Z,102202.95
2019-03-19T19:45:32.757Z,102201.20
2019-03-19T19:48:03.611Z,102202.02
2019-03-19T19:50:33.071Z,102200.66
2019-03-19T19:53:03.638Z,102207.56
2019-03-19T19:55:33.741Z,102202.38
2019-03-19T19:58:04.640Z,102195.91
2019-03-19T20:00:34.236Z,102204.97
2019-03-19T20:03:11.745Z,102204.61
2019-03-19T20:05:35.106Z,102200.73
2019-03-19T20:08:04.581Z,102202.45
2019-03-19T20:10:34.194Z,102212.13
2019-03-19T20:13:03.706Z,102211.70
2019-03-19T20:15:33.218Z,102212.26
2019-03-19T20:18:06.671Z,102214.05
2019-03-19T20:20:36.259Z,102213.55
2019-03-19T20:23:05.772Z,102232.59
2019-03-19T20:25:35.238Z,102231.27
2019-03-19T20:28:05.589Z,102230.41
2019-03-19T20:30:36.333Z,102240.39
2019-03-19T20:33:05.770Z,102232.75
2019-03-19T20:35:36.805Z,102226.77
2019-03-19T20:38:06.233Z,102241.10
2019-03-19T20:40:35.692Z,102242.04
2019-03-19T20:43:05.126Z,102248.50
2019-03-19T20:45:34.582Z,102258.06
2019-03-19T20:48:04.187Z,102263.73
2019-03-19T20:50:38.406Z,102260.33
2019-03-19T20:53:07.829Z,102268.17
2019-03-19T20:55:37.292Z,102258.23
2019-03-19T20:58:06.752Z,102266.05
2019-03-19T21:00:36.220Z,102263.91
2019-03-19T21:03:05.675Z,102263.06
2019-03-19T21:05:35.117Z,102267.41
2019-03-19T21:08:04.643Z,102271.77
2019-03-19T21:10:34.072Z,102275.27
2019-03-19T21:13:03.525Z,102274.89
2019-03-19T21:15:32.962Z,102277.94
2019-03-19T21:18:02.418Z,102271.95
2019-03-19T21:20:31.845Z,102273.69
2019-03-19T21:23:01.323Z,102284.02
2019-03-19T21:25:30.754Z,102288.80
2019-03-19T21:28:00.211Z,102281.93
2019-03-19T21:30:29.639Z,102283.23
2019-03-19T21:32:59.096Z,102282.83
2019-03-19T21:35:28.526Z,102284.09
2019-03-19T21:37:57.979Z,102282.34
2019-03-19T21:40:27.404Z,102287.55
2019-03-19T21:42:56.866Z,102282.84
2019-03-19T21:45:26.282Z,102287.14
2019-03-19T21:47:55.732Z,102294.88
2019-03-19T21:50:25.797Z,102294.02
2019-03-19T21:52:55.657Z,102294.05
2019-03-19T21:55:25.086Z,102294.91
2019-03-19T21:57:54.542Z,102292.33
2019-03-19T22:00:27.113Z,102294.47
2019-03-19T22:02:56.631Z,102301.75
2019-03-19T22:05:26.041Z,102297.03
2019-03-19T22:07:55.469Z,102306.06
2019-03-19T22:10:25.093Z,102298.33
2019-03-19T22:12:54.525Z,102304.77
2019-03-19T22:15:24.831Z,102303.50
2019-03-19T22:17:54.269Z,102302.21
2019-03-19T22:20:23.722Z,102307.81
2019-03-19T22:22:53.154Z,102303.95
2019-03-19T22:25:22.609Z,102305.68
2019-03-19T22:27:52.037Z,102296.64
2019-03-19T22:30:22.051Z,102296.64
2019-03-19T22:32:51.471Z,102307.38
2019-03-19T22:35:20.924Z,102305.27
2019-03-19T22:37:50.356Z,102316.86
2019-03-19T22:40:19.821Z,102312.57
2019-03-19T22:42:49.245Z,102318.13
2019-03-19T22:45:19.707Z,102313.41
2019-03-19T22:47:49.119Z,102324.59
2019-03-19T22:50:18.920Z,102326.29
2019-03-19T22:52:48.375Z,102327.16
2019-03-19T22:55:28.659Z,102329.32
2019-03-19T22:57:48.996Z,102337.88
2019-03-19T23:00:38.419Z,102330.16
2019-03-19T23:03:08.096Z,102328.42
2019-03-19T23:05:37.546Z,102334.89
2019-03-19T23:08:06.991Z,102327.14
2019-03-19T23:10:36.422Z,102334.86
2019-03-19T23:13:05.851Z,102337.02
2019-03-19T23:15:35.303Z,102338.72
2019-03-19T23:18:04.810Z,102337.41
2019-03-19T23:20:34.253Z,102343.41
2019-03-19T23:23:03.689Z,102351.58
2019-03-19T23:25:33.131Z,102347.27
2019-03-19T23:28:02.564Z,102341.67
2019-03-19T23:30:32.026Z,102350.27
2019-03-19T23:33:01.460Z,102348.11
2019-03-19T23:35:30.912Z,102356.69
2019-03-19T23:38:00.329Z,102351.51
2019-03-19T23:40:29.782Z,102353.70
2019-03-19T23:42:59.205Z,102354.14
2019-03-19T23:45:28.658Z,102356.28
2019-03-19T23:47:58.086Z,102352.47
2019-03-19T23:50:27.541Z,102354.17
2019-03-19T23:52:56.967Z,102354.16
2019-03-19T23:55:29.319Z,102361.03
2019-03-19T23:57:58.761Z,102364.89
